sensor_id;sensor_type;location;lat;lon;timestamp;P1;durP1;ratioP1;P2;durP2;ratioP2
30000;SDS011;16845;48.670;9.000;2023-04-24T00:01:48;3.75;;;1.95;;
30000;SDS011;16845;48.670;9.000;2023-04-24T00:04:16;8.98;;;1.35;;
30000;SDS011;16845;48.670;9.000;2023-04-24T00:06:43;1.33;;;1.08;;
30000;SDS011;16845;48.670;9.000;2023-04-24T00:09:10;5.50;;;1.10;;
30000;SDS011;16845;48.670;9.000;2023-04-24T00:11:37;6.97;;;2.28;;
30000;SDS011;16845;48.670;9.000;2023-04-24T00:14:03;1.52;;;1.08;;
30000;SDS011;16845;48.670;9.000;2023-04-24T00:16:30;1.20;;;1.10;;
30000;SDS011;16845;48.670;9.000;2023-04-24T00:18:57;1.63;;;1.30;;
30000;SDS011;16845;48.670;9.000;2023-04-24T00:21:25;1.13;;;0.97;;
30000;SDS011;16845;48.670;9.000;2023-04-24T00:23:52;6.85;;;1.35;;
30000;SDS011;16845;48.670;9.000;2023-04-24T00:26:19;2.88;;;1.20;;
30000;SDS011;16845;48.670;9.000;2023-04-24T00:28:45;3.67;;;1.10;;
30000;SDS011;16845;48.670;9.000;2023-04-24T00:31:12;3.60;;;1.13;;
30000;SDS011;16845;48.670;9.000;2023-04-24T00:33:39;1.65;;;1.20;;
30000;SDS011;16845;48.670;9.000;2023-04-24T00:36:06;3.30;;;0.80;;
30000;SDS011;16845;48.670;9.000;2023-04-24T00:38:34;3.78;;;1.05;;
30000;SDS011;16845;48.670;9.000;2023-04-24T00:41:01;1.92;;;0.80;;
30000;SDS011;16845;48.670;9.000;2023-04-24T00:43:27;2.33;;;1.20;;
30000;SDS011;16845;48.670;9.000;2023-04-24T00:45:54;1.10;;;0.87;;
30000;SDS011;16845;48.670;9.000;2023-04-24T00:48:21;1.35;;;1.15;;
30000;SDS011;16845;48.670;9.000;2023-04-24T00:50:49;1.63;;;1.13;;
30000;SDS011;16845;48.670;9.000;2023-04-24T00:53:15;2.80;;;0.90;;
30000;SDS011;16845;48.670;9.000;2023-04-24T00:55:43;2.37;;;1.27;;
30000;SDS011;16845;48.670;9.000;2023-04-24T00:58:10;2.92;;;0.95;;
30000;SDS011;16845;48.670;9.000;2023-04-24T01:00:38;2.45;;;1.10;;
30000;SDS011;16845;48.670;9.000;2023-04-24T01:03:05;2.88;;;1.35;;
30000;SDS011;16845;48.670;9.000;2023-04-24T01:05:33;1.35;;;1.00;;
30000;SDS011;16845;48.670;9.000;2023-04-24T01:08:00;2.17;;;1.50;;
30000;SDS011;16845;48.670;9.000;2023-04-24T01:10:29;4.38;;;1.17;;
30000;SDS011;16845;48.670;9.000;2023-04-24T01:12:58;1.95;;;1.05;;
30000;SDS011;16845;48.670;9.000;2023-04-24T01:15:25;2.75;;;1.05;;
30000;SDS011;16845;48.670;9.000;2023-04-24T01:17:52;2.17;;;1.73;;
30000;SDS011;16845;48.670;9.000;2023-04-24T01:20:19;6.32;;;2.42;;
30000;SDS011;16845;48.670;9.000;2023-04-24T01:22:47;2.88;;;1.33;;
30000;SDS011;16845;48.670;9.000;2023-04-24T01:25:14;4.28;;;1.20;;
30000;SDS011;16845;48.670;9.000;2023-04-24T01:27:41;1.05;;;0.95;;
30000;SDS011;16845;48.670;9.000;2023-04-24T01:30:08;2.22;;;1.08;;
30000;SDS011;16845;48.670;9.000;2023-04-24T01:32:36;3.47;;;1.20;;
30000;SDS011;16845;48.670;9.000;2023-04-24T01:35:04;2.67;;;0.88;;
30000;SDS011;16845;48.670;9.000;2023-04-24T01:37:31;1.52;;;1.00;;
30000;SDS011;16845;48.670;9.000;2023-04-24T01:39:59;1.45;;;1.10;;
30000;SDS011;16845;48.670;9.000;2023-04-24T01:42:26;4.70;;;1.00;;
30000;SDS011;16845;48.670;9.000;2023-04-24T01:44:53;2.95;;;1.80;;
30000;SDS011;16845;48.670;9.000;2023-04-24T01:47:20;1.50;;;1.17;;
30000;SDS011;16845;48.670;9.000;2023-04-24T01:49:48;2.33;;;1.20;;
30000;SDS011;16845;48.670;9.000;2023-04-24T01:52:15;1.42;;;1.02;;
30000;SDS011;16845;48.670;9.000;2023-04-24T01:54:42;3.33;;;1.10;;
30000;SDS011;16845;48.670;9.000;2023-04-24T01:57:10;2.43;;;1.40;;
30000;SDS011;16845;48.670;9.000;2023-04-24T01:59:37;2.80;;;1.15;;
30000;SDS011;16845;48.670;9.000;2023-04-24T02:02:04;1.97;;;0.93;;
30000;SDS011;16845;48.670;9.000;2023-04-24T02:04:31;2.50;;;1.10;;
30000;SDS011;16845;48.670;9.000;2023-04-24T02:06:57;3.28;;;1.40;;
30000;SDS011;16845;48.670;9.000;2023-04-24T02:09:24;1.95;;;1.60;;
30000;SDS011;16845;48.670;9.000;2023-04-24T02:11:51;6.53;;;2.07;;
30000;SDS011;16845;48.670;9.000;2023-04-24T02:14:19;3.03;;;1.33;;
30000;SDS011;16845;48.670;9.000;2023-04-24T02:16:46;3.35;;;1.17;;
30000;SDS011;16845;48.670;9.000;2023-04-24T02:19:13;2.35;;;1.15;;
30000;SDS011;16845;48.670;9.000;2023-04-24T02:21:39;3.20;;;1.20;;
30000;SDS011;16845;48.670;9.000;2023-04-24T02:24:06;5.30;;;1.23;;
30000;SDS011;16845;48.670;9.000;2023-04-24T02:26:33;2.53;;;1.10;;
30000;SDS011;16845;48.670;9.000;2023-04-24T02:28:59;3.97;;;1.10;;
30000;SDS011;16845;48.670;9.000;2023-04-24T02:31:29;3.67;;;1.10;;
30000;SDS011;16845;48.670;9.000;2023-04-24T02:33:56;2.22;;;1.25;;
30000;SDS011;16845;48.670;9.000;2023-04-24T02:36:22;1.47;;;1.33;;
30000;SDS011;16845;48.670;9.000;2023-04-24T02:38:49;2.90;;;1.30;;
30000;SDS011;16845;48.670;9.000;2023-04-24T02:41:16;3.93;;;1.33;;
30000;SDS011;16845;48.670;9.000;2023-04-24T02:43:42;2.43;;;1.73;;
30000;SDS011;16845;48.670;9.000;2023-04-24T02:46:09;1.93;;;0.97;;
30000;SDS011;16845;48.670;9.000;2023-04-24T02:48:37;2.63;;;1.20;;
30000;SDS011;16845;48.670;9.000;2023-04-24T02:51:04;1.83;;;1.35;;
30000;SDS011;16845;48.670;9.000;2023-04-24T02:53:31;3.00;;;1.40;;
30000;SDS011;16845;48.670;9.000;2023-04-24T02:55:58;2.37;;;1.20;;
30000;SDS011;16845;48.670;9.000;2023-04-24T02:58:24;2.75;;;1.38;;
30000;SDS011;16845;48.670;9.000;2023-04-24T03:00:52;5.57;;;1.40;;
30000;SDS011;16845;48.670;9.000;2023-04-24T03:03:20;2.17;;;1.50;;
30000;SDS011;16845;48.670;9.000;2023-04-24T03:05:48;3.78;;;1.30;;
30000;SDS011;16845;48.670;9.000;2023-04-24T03:08:15;2.97;;;1.30;;
30000;SDS011;16845;48.670;9.000;2023-04-24T03:10:42;9.02;;;1.45;;
30000;SDS011;16845;48.670;9.000;2023-04-24T03:13:09;2.38;;;1.13;;
30000;SDS011;16845;48.670;9.000;2023-04-24T03:15:36;1.53;;;1.20;;
30000;SDS011;16845;48.670;9.000;2023-04-24T03:18:03;2.53;;;1.10;;
30000;SDS011;16845;48.670;9.000;2023-04-24T03:20:30;4.32;;;1.10;;
30000;SDS011;16845;48.670;9.000;2023-04-24T03:22:58;4.47;;;1.63;;
30000;SDS011;16845;48.670;9.000;2023-04-24T03:25:24;3.55;;;1.42;;
30000;SDS011;16845;48.670;9.000;2023-04-24T03:27:51;1.43;;;1.33;;
30000;SDS011;16845;48.670;9.000;2023-04-24T03:30:18;3.70;;;1.20;;
30000;SDS011;16845;48.670;9.000;2023-04-24T03:32:45;2.22;;;1.48;;
30000;SDS011;16845;48.670;9.000;2023-04-24T03:35:12;1.90;;;1.37;;
30000;SDS011;16845;48.670;9.000;2023-04-24T03:37:38;3.50;;;1.10;;
30000;SDS011;16845;48.670;9.000;2023-04-24T03:40:07;3.60;;;1.27;;
30000;SDS011;16845;48.670;9.000;2023-04-24T03:42:35;2.58;;;1.23;;
30000;SDS011;16845;48.670;9.000;2023-04-24T03:45:04;2.05;;;1.00;;
30000;SDS011;16845;48.670;9.000;2023-04-24T03:47:32;0.98;;;0.93;;
30000;SDS011;16845;48.670;9.000;2023-04-24T03:49:59;1.40;;;0.98;;
30000;SDS011;16845;48.670;9.000;2023-04-24T03:52:26;1.35;;;1.10;;
30000;SDS011;16845;48.670;9.000;2023-04-24T03:54:52;2.40;;;1.20;;
30000;SDS011;16845;48.670;9.000;2023-04-24T03:57:20;3.13;;;1.57;;
30000;SDS011;16845;48.670;9.000;2023-04-24T03:59:47;6.05;;;1.33;;
30000;SDS011;16845;48.670;9.000;2023-04-24T04:02:14;1.20;;;1.10;;
30000;SDS011;16845;48.670;9.000;2023-04-24T04:04:41;4.95;;;1.75;;
30000;SDS011;16845;48.670;9.000;2023-04-24T04:07:08;1.77;;;1.00;;
30000;SDS011;16845;48.670;9.000;2023-04-24T04:09:34;1.33;;;1.17;;
30000;SDS011;16845;48.670;9.000;2023-04-24T04:12:01;0.93;;;0.80;;
30000;SDS011;16845;48.670;9.000;2023-04-24T04:14:29;0.93;;;0.93;;
30000;SDS011;16845;48.670;9.000;2023-04-24T04:16:56;1.40;;;0.80;;
30000;SDS011;16845;48.670;9.000;2023-04-24T04:19:23;2.00;;;0.80;;
30000;SDS011;16845;48.670;9.000;2023-04-24T04:21:50;1.60;;;0.87;;
30000;SDS011;16845;48.670;9.000;2023-04-24T04:24:16;1.55;;;0.85;;
30000;SDS011;16845;48.670;9.000;2023-04-24T04:26:43;1.70;;;0.80;;
30000;SDS011;16845;48.670;9.000;2023-04-24T04:29:10;1.27;;;0.88;;
30000;SDS011;16845;48.670;9.000;2023-04-24T04:31:38;3.03;;;1.40;;
30000;SDS011;16845;48.670;9.000;2023-04-24T04:34:05;5.80;;;1.25;;
30000;SDS011;16845;48.670;9.000;2023-04-24T04:36:31;4.00;;;1.70;;
30000;SDS011;16845;48.670;9.000;2023-04-24T04:38:59;6.00;;;2.20;;
30000;SDS011;16845;48.670;9.000;2023-04-24T04:41:25;6.50;;;2.70;;
30000;SDS011;16845;48.670;9.000;2023-04-24T04:43:52;9.32;;;1.85;;
30000;SDS011;16845;48.670;9.000;2023-04-24T04:46:19;2.97;;;2.00;;
30000;SDS011;16845;48.670;9.000;2023-04-24T04:48:47;5.43;;;2.28;;
30000;SDS011;16845;48.670;9.000;2023-04-24T04:51:14;5.15;;;2.08;;
30000;SDS011;16845;48.670;9.000;2023-04-24T04:53:40;3.10;;;1.83;;
30000;SDS011;16845;48.670;9.000;2023-04-24T04:56:07;6.90;;;2.37;;
30000;SDS011;16845;48.670;9.000;2023-04-24T04:58:34;1.80;;;1.70;;
30000;SDS011;16845;48.670;9.000;2023-04-24T05:01:00;5.30;;;2.00;;
30000;SDS011;16845;48.670;9.000;2023-04-24T05:03:27;1.98;;;1.80;;
30000;SDS011;16845;48.670;9.000;2023-04-24T05:05:55;2.75;;;2.13;;
30000;SDS011;16845;48.670;9.000;2023-04-24T05:08:23;3.13;;;1.55;;
30000;SDS011;16845;48.670;9.000;2023-04-24T05:10:53;4.32;;;1.70;;
30000;SDS011;16845;48.670;9.000;2023-04-24T05:13:19;3.10;;;2.10;;
30000;SDS011;16845;48.670;9.000;2023-04-24T05:16:01;5.05;;;2.05;;
30000;SDS011;16845;48.670;9.000;2023-04-24T05:18:28;3.05;;;2.85;;
30000;SDS011;16845;48.670;9.000;2023-04-24T05:20:56;2.92;;;2.67;;
30000;SDS011;16845;48.670;9.000;2023-04-24T05:23:23;3.75;;;2.10;;
30000;SDS011;16845;48.670;9.000;2023-04-24T05:25:49;2.73;;;2.13;;
30000;SDS011;16845;48.670;9.000;2023-04-24T05:28:17;2.65;;;2.05;;
30000;SDS011;16845;48.670;9.000;2023-04-24T05:30:43;3.58;;;1.88;;
30000;SDS011;16845;48.670;9.000;2023-04-24T05:33:10;4.35;;;2.10;;
30000;SDS011;16845;48.670;9.000;2023-04-24T05:35:37;3.05;;;2.03;;
30000;SDS011;16845;48.670;9.000;2023-04-24T05:38:05;2.13;;;1.65;;
30000;SDS011;16845;48.670;9.000;2023-04-24T05:40:32;4.15;;;1.85;;
30000;SDS011;16845;48.670;9.000;2023-04-24T05:42:58;2.30;;;2.10;;
30000;SDS011;16845;48.670;9.000;2023-04-24T05:45:25;3.87;;;3.30;;
30000;SDS011;16845;48.670;9.000;2023-04-24T05:47:52;3.05;;;2.05;;
30000;SDS011;16845;48.670;9.000;2023-04-24T05:50:19;6.18;;;2.20;;
30000;SDS011;16845;48.670;9.000;2023-04-24T05:52:46;1.83;;;1.70;;
30000;SDS011;16845;48.670;9.000;2023-04-24T05:55:14;4.55;;;2.50;;
30000;SDS011;16845;48.670;9.000;2023-04-24T05:57:41;6.70;;;2.25;;
30000;SDS011;16845;48.670;9.000;2023-04-24T06:00:08;3.37;;;2.33;;
30000;SDS011;16845;48.670;9.000;2023-04-24T06:02:35;3.78;;;2.85;;
30000;SDS011;16845;48.670;9.000;2023-04-24T06:05:03;5.72;;;2.97;;
30000;SDS011;16845;48.670;9.000;2023-04-24T06:07:30;2.67;;;2.25;;
30000;SDS011;16845;48.670;9.000;2023-04-24T06:09:57;5.07;;;2.95;;
30000;SDS011;16845;48.670;9.000;2023-04-24T06:12:25;5.03;;;2.70;;
30000;SDS011;16845;48.670;9.000;2023-04-24T06:14:52;4.10;;;2.50;;
30000;SDS011;16845;48.670;9.000;2023-04-24T06:17:18;2.50;;;2.30;;
30000;SDS011;16845;48.670;9.000;2023-04-24T06:19:45;4.63;;;2.23;;
30000;SDS011;16845;48.670;9.000;2023-04-24T06:22:12;4.03;;;2.13;;
30000;SDS011;16845;48.670;9.000;2023-04-24T06:24:39;4.38;;;2.50;;
30000;SDS011;16845;48.670;9.000;2023-04-24T06:27:06;4.57;;;2.25;;
30000;SDS011;16845;48.670;9.000;2023-04-24T06:29:35;4.80;;;2.17;;
30000;SDS011;16845;48.670;9.000;2023-04-24T06:32:02;4.95;;;2.33;;
30000;SDS011;16845;48.670;9.000;2023-04-24T06:34:28;3.60;;;2.57;;
30000;SDS011;16845;48.670;9.000;2023-04-24T06:36:55;3.70;;;2.20;;
30000;SDS011;16845;48.670;9.000;2023-04-24T06:39:22;2.58;;;1.95;;
30000;SDS011;16845;48.670;9.000;2023-04-24T06:41:49;2.50;;;1.93;;
30000;SDS011;16845;48.670;9.000;2023-04-24T06:44:16;2.80;;;2.08;;
30000;SDS011;16845;48.670;9.000;2023-04-24T06:46:44;2.33;;;1.80;;
30000;SDS011;16845;48.670;9.000;2023-04-24T06:49:11;1.95;;;1.75;;
30000;SDS011;16845;48.670;9.000;2023-04-24T06:51:37;4.68;;;1.58;;
30000;SDS011;16845;48.670;9.000;2023-04-24T06:54:04;4.47;;;2.10;;
30000;SDS011;16845;48.670;9.000;2023-04-24T06:56:31;3.28;;;2.05;;
30000;SDS011;16845;48.670;9.000;2023-04-24T06:58:58;2.73;;;1.73;;
30000;SDS011;16845;48.670;9.000;2023-04-24T07:01:24;3.17;;;2.10;;
30000;SDS011;16845;48.670;9.000;2023-04-24T07:03:52;3.40;;;1.73;;
30000;SDS011;16845;48.670;9.000;2023-04-24T07:06:19;2.17;;;1.98;;
30000;SDS011;16845;48.670;9.000;2023-04-24T07:08:46;4.00;;;1.63;;
30000;SDS011;16845;48.670;9.000;2023-04-24T07:11:13;2.10;;;1.90;;
30000;SDS011;16845;48.670;9.000;2023-04-24T07:13:40;3.40;;;1.57;;
30000;SDS011;16845;48.670;9.000;2023-04-24T07:16:06;1.67;;;1.10;;
30000;SDS011;16845;48.670;9.000;2023-04-24T07:18:33;3.92;;;1.67;;
30000;SDS011;16845;48.670;9.000;2023-04-24T07:23:29;2.03;;;1.83;;
30000;SDS011;16845;48.670;9.000;2023-04-24T07:25:56;2.17;;;1.10;;
30000;SDS011;16845;48.670;9.000;2023-04-24T07:28:22;2.60;;;1.57;;
30000;SDS011;16845;48.670;9.000;2023-04-24T07:30:49;1.00;;;1.00;;
30000;SDS011;16845;48.670;9.000;2023-04-24T07:33:16;3.22;;;2.38;;
30000;SDS011;16845;48.670;9.000;2023-04-24T07:35:43;1.87;;;1.20;;
30000;SDS011;16845;48.670;9.000;2023-04-24T07:38:11;1.80;;;1.17;;
30000;SDS011;16845;48.670;9.000;2023-04-24T07:40:37;2.08;;;0.95;;
30000;SDS011;16845;48.670;9.000;2023-04-24T07:43:04;1.70;;;1.20;;
30000;SDS011;16845;48.670;9.000;2023-04-24T07:45:31;1.30;;;1.20;;
30000;SDS011;16845;48.670;9.000;2023-04-24T07:47:58;1.20;;;1.10;;
30000;SDS011;16845;48.670;9.000;2023-04-24T07:50:24;1.92;;;1.30;;
30000;SDS011;16845;48.670;9.000;2023-04-24T07:52:51;1.97;;;1.37;;
30000;SDS011;16845;48.670;9.000;2023-04-24T07:55:19;1.50;;;1.40;;
30000;SDS011;16845;48.670;9.000;2023-04-24T07:57:51;3.90;;;1.40;;
30000;SDS011;16845;48.670;9.000;2023-04-24T08:00:17;3.38;;;1.50;;
30000;SDS011;16845;48.670;9.000;2023-04-24T08:02:44;4.95;;;1.70;;
30000;SDS011;16845;48.670;9.000;2023-04-24T08:05:11;1.40;;;1.02;;
30000;SDS011;16845;48.670;9.000;2023-04-24T08:07:38;1.58;;;1.08;;
30000;SDS011;16845;48.670;9.000;2023-04-24T08:10:06;2.10;;;1.77;;
30000;SDS011;16845;48.670;9.000;2023-04-24T08:12:34;4.32;;;1.40;;
30000;SDS011;16845;48.670;9.000;2023-04-24T08:15:01;3.60;;;1.33;;
30000;SDS011;16845;48.670;9.000;2023-04-24T08:17:28;1.55;;;1.27;;
30000;SDS011;16845;48.670;9.000;2023-04-24T08:19:56;5.35;;;1.83;;
30000;SDS011;16845;48.670;9.000;2023-04-24T08:22:23;1.50;;;1.40;;
30000;SDS011;16845;48.670;9.000;2023-04-24T08:24:49;1.37;;;1.27;;
30000;SDS011;16845;48.670;9.000;2023-04-24T08:27:16;1.80;;;1.53;;
30000;SDS011;16845;48.670;9.000;2023-04-24T08:29:44;2.47;;;1.20;;
30000;SDS011;16845;48.670;9.000;2023-04-24T08:32:11;1.27;;;1.17;;
30000;SDS011;16845;48.670;9.000;2023-04-24T08:34:37;5.20;;;1.37;;
30000;SDS011;16845;48.670;9.000;2023-04-24T08:37:04;1.70;;;1.33;;
30000;SDS011;16845;48.670;9.000;2023-04-24T08:39:31;3.22;;;1.63;;
30000;SDS011;16845;48.670;9.000;2023-04-24T08:41:58;2.08;;;1.73;;
30000;SDS011;16845;48.670;9.000;2023-04-24T08:44:26;2.05;;;1.70;;
30000;SDS011;16845;48.670;9.000;2023-04-24T08:46:54;4.10;;;1.88;;
30000;SDS011;16845;48.670;9.000;2023-04-24T08:49:21;5.25;;;1.95;;
30000;SDS011;16845;48.670;9.000;2023-04-24T08:51:51;2.95;;;1.88;;
30000;SDS011;16845;48.670;9.000;2023-04-24T08:54:19;1.85;;;1.35;;
30000;SDS011;16845;48.670;9.000;2023-04-24T08:56:47;2.75;;;2.03;;
30000;SDS011;16845;48.670;9.000;2023-04-24T08:59:14;2.78;;;1.70;;
30000;SDS011;16845;48.670;9.000;2023-04-24T09:01:41;2.22;;;1.80;;
30000;SDS011;16845;48.670;9.000;2023-04-24T09:04:12;12.10;;;2.80;;
30000;SDS011;16845;48.670;9.000;2023-04-24T09:06:41;2.10;;;1.50;;
30000;SDS011;16845;48.670;9.000;2023-04-24T09:09:08;3.40;;;1.33;;
30000;SDS011;16845;48.670;9.000;2023-04-24T09:11:37;3.78;;;1.40;;
30000;SDS011;16845;48.670;9.000;2023-04-24T09:14:04;3.75;;;1.20;;
30000;SDS011;16845;48.670;9.000;2023-04-24T09:16:32;1.60;;;1.10;;
30000;SDS011;16845;48.670;9.000;2023-04-24T09:19:02;2.42;;;1.17;;
30000;SDS011;16845;48.670;9.000;2023-04-24T09:21:32;5.10;;;1.60;;
30000;SDS011;16845;48.670;9.000;2023-04-24T09:24:00;5.10;;;1.33;;
30000;SDS011;16845;48.670;9.000;2023-04-24T09:26:28;1.50;;;1.02;;
30000;SDS011;16845;48.670;9.000;2023-04-24T09:28:56;4.22;;;1.42;;
30000;SDS011;16845;48.670;9.000;2023-04-24T09:31:22;1.45;;;1.02;;
30000;SDS011;16845;48.670;9.000;2023-04-24T09:33:59;3.20;;;1.02;;
30000;SDS011;16845;48.670;9.000;2023-04-24T09:36:29;2.10;;;1.40;;
30000;SDS011;16845;48.670;9.000;2023-04-24T09:38:59;1.88;;;0.90;;
30000;SDS011;16845;48.670;9.000;2023-04-24T09:41:26;3.72;;;1.52;;
30000;SDS011;16845;48.670;9.000;2023-04-24T09:46:20;1.63;;;0.80;;
30000;SDS011;16845;48.670;9.000;2023-04-24T09:48:55;1.02;;;0.93;;
30000;SDS011;16845;48.670;9.000;2023-04-24T09:51:32;1.70;;;1.23;;
30000;SDS011;16845;48.670;9.000;2023-04-24T09:54:01;2.78;;;1.02;;
30000;SDS011;16845;48.670;9.000;2023-04-24T09:56:29;2.67;;;0.73;;
30000;SDS011;16845;48.670;9.000;2023-04-24T09:59:04;2.30;;;1.27;;
30000;SDS011;16845;48.670;9.000;2023-04-24T10:01:32;2.25;;;1.25;;
30000;SDS011;16845;48.670;9.000;2023-04-24T10:04:00;2.20;;;1.23;;
30000;SDS011;16845;48.670;9.000;2023-04-24T10:06:31;3.88;;;1.02;;
30000;SDS011;16845;48.670;9.000;2023-04-24T10:09:01;1.30;;;0.80;;
30000;SDS011;16845;48.670;9.000;2023-04-24T10:11:28;1.90;;;0.90;;
30000;SDS011;16845;48.670;9.000;2023-04-24T10:13:56;3.40;;;0.90;;
30000;SDS011;16845;48.670;9.000;2023-04-24T10:18:50;4.97;;;1.00;;
30000;SDS011;16845;48.670;9.000;2023-04-24T10:21:17;1.42;;;0.82;;
30000;SDS011;16845;48.670;9.000;2023-04-24T10:23:44;1.15;;;0.63;;
30000;SDS011;16845;48.670;9.000;2023-04-24T10:26:13;1.75;;;0.70;;
30000;SDS011;16845;48.670;9.000;2023-04-24T10:28:40;0.80;;;0.80;;
30000;SDS011;16845;48.670;9.000;2023-04-24T10:31:08;4.38;;;1.27;;
30000;SDS011;16845;48.670;9.000;2023-04-24T10:33:36;3.28;;;1.00;;
30000;SDS011;16845;48.670;9.000;2023-04-24T10:36:04;0.73;;;0.73;;
30000;SDS011;16845;48.670;9.000;2023-04-24T10:38:31;1.10;;;1.00;;
30000;SDS011;16845;48.670;9.000;2023-04-24T10:41:06;1.10;;;0.90;;
30000;SDS011;16845;48.670;9.000;2023-04-24T10:43:35;2.25;;;0.95;;
30000;SDS011;16845;48.670;9.000;2023-04-24T10:46:03;1.42;;;1.08;;
30000;SDS011;16845;48.670;9.000;2023-04-24T10:48:31;2.13;;;1.00;;
30000;SDS011;16845;48.670;9.000;2023-04-24T10:50:58;2.85;;;1.08;;
30000;SDS011;16845;48.670;9.000;2023-04-24T10:53:27;3.50;;;0.80;;
30000;SDS011;16845;48.670;9.000;2023-04-24T10:55:57;2.13;;;1.10;;
30000;SDS011;16845;48.670;9.000;2023-04-24T10:58:36;1.25;;;1.15;;
30000;SDS011;16845;48.670;9.000;2023-04-24T11:01:06;1.48;;;1.10;;
30000;SDS011;16845;48.670;9.000;2023-04-24T11:03:34;1.58;;;0.98;;
30000;SDS011;16845;48.670;9.000;2023-04-24T11:06:02;1.80;;;1.08;;
30000;SDS011;16845;48.670;9.000;2023-04-24T11:08:31;2.38;;;1.23;;
30000;SDS011;16845;48.670;9.000;2023-04-24T11:11:04;2.25;;;0.82;;
30000;SDS011;16845;48.670;9.000;2023-04-24T11:16:29;1.45;;;1.30;;
30000;SDS011;16845;48.670;9.000;2023-04-24T11:19:00;2.30;;;1.17;;
30000;SDS011;16845;48.670;9.000;2023-04-24T11:21:30;2.20;;;1.20;;
30000;SDS011;16845;48.670;9.000;2023-04-24T11:23:57;2.83;;;1.15;;
30000;SDS011;16845;48.670;9.000;2023-04-24T11:26:24;2.92;;;1.20;;
30000;SDS011;16845;48.670;9.000;2023-04-24T11:28:51;1.52;;;1.13;;
30000;SDS011;16845;48.670;9.000;2023-04-24T11:31:35;1.27;;;1.17;;
30000;SDS011;16845;48.670;9.000;2023-04-24T11:34:09;2.72;;;1.40;;
30000;SDS011;16845;48.670;9.000;2023-04-24T11:36:37;1.58;;;1.25;;
30000;SDS011;16845;48.670;9.000;2023-04-24T11:39:04;1.60;;;1.25;;
30000;SDS011;16845;48.670;9.000;2023-04-24T11:41:31;2.47;;;1.08;;
30000;SDS011;16845;48.670;9.000;2023-04-24T11:43:59;1.73;;;1.23;;
30000;SDS011;16845;48.670;9.000;2023-04-24T11:46:29;1.65;;;1.15;;
30000;SDS011;16845;48.670;9.000;2023-04-24T11:48:58;2.38;;;1.10;;
30000;SDS011;16845;48.670;9.000;2023-04-24T11:51:26;1.30;;;1.20;;
30000;SDS011;16845;48.670;9.000;2023-04-24T11:54:02;2.65;;;1.15;;
30000;SDS011;16845;48.670;9.000;2023-04-24T11:56:33;5.03;;;1.42;;
30000;SDS011;16845;48.670;9.000;2023-04-24T11:59:00;1.65;;;1.20;;
30000;SDS011;16845;48.670;9.000;2023-04-24T12:01:41;1.88;;;1.17;;
30000;SDS011;16845;48.670;9.000;2023-04-24T12:04:10;3.72;;;1.30;;
30000;SDS011;16845;48.670;9.000;2023-04-24T12:06:37;5.07;;;1.38;;
30000;SDS011;16845;48.670;9.000;2023-04-24T12:09:04;1.50;;;1.02;;
30000;SDS011;16845;48.670;9.000;2023-04-24T12:11:52;5.30;;;1.30;;
30000;SDS011;16845;48.670;9.000;2023-04-24T12:14:19;1.98;;;1.70;;
30000;SDS011;16845;48.670;9.000;2023-04-24T12:16:47;3.15;;;1.58;;
30000;SDS011;16845;48.670;9.000;2023-04-24T12:19:18;1.20;;;1.10;;
30000;SDS011;16845;48.670;9.000;2023-04-24T12:21:58;1.90;;;1.08;;
30000;SDS011;16845;48.670;9.000;2023-04-24T12:24:26;3.35;;;1.40;;
30000;SDS011;16845;48.670;9.000;2023-04-24T12:26:52;2.05;;;1.20;;
30000;SDS011;16845;48.670;9.000;2023-04-24T12:29:19;1.88;;;1.40;;
30000;SDS011;16845;48.670;9.000;2023-04-24T12:31:46;1.95;;;1.42;;
30000;SDS011;16845;48.670;9.000;2023-04-24T12:34:18;1.92;;;1.55;;
30000;SDS011;16845;48.670;9.000;2023-04-24T12:36:45;1.50;;;1.27;;
30000;SDS011;16845;48.670;9.000;2023-04-24T12:39:15;3.25;;;1.90;;
30000;SDS011;16845;48.670;9.000;2023-04-24T12:41:50;0.93;;;0.77;;
30000;SDS011;16845;48.670;9.000;2023-04-24T12:44:20;1.52;;;1.00;;
30000;SDS011;16845;48.670;9.000;2023-04-24T12:46:54;3.42;;;0.98;;
30000;SDS011;16845;48.670;9.000;2023-04-24T12:49:22;1.45;;;1.20;;
30000;SDS011;16845;48.670;9.000;2023-04-24T12:51:49;1.20;;;1.10;;
30000;SDS011;16845;48.670;9.000;2023-04-24T12:54:15;4.90;;;1.20;;
30000;SDS011;16845;48.670;9.000;2023-04-24T12:56:42;1.92;;;1.30;;
30000;SDS011;16845;48.670;9.000;2023-04-24T12:59:09;1.58;;;1.20;;
30000;SDS011;16845;48.670;9.000;2023-04-24T13:01:36;1.10;;;1.00;;
30000;SDS011;16845;48.670;9.000;2023-04-24T13:04:03;1.90;;;1.70;;
30000;SDS011;16845;48.670;9.000;2023-04-24T13:06:31;1.52;;;1.42;;
30000;SDS011;16845;48.670;9.000;2023-04-24T13:08:58;1.67;;;1.48;;
30000;SDS011;16845;48.670;9.000;2023-04-24T13:11:24;2.00;;;1.80;;
30000;SDS011;16845;48.670;9.000;2023-04-24T13:13:51;2.40;;;2.20;;
30000;SDS011;16845;48.670;9.000;2023-04-24T13:16:20;5.28;;;1.40;;
30000;SDS011;16845;48.670;9.000;2023-04-24T13:18:47;1.60;;;1.50;;
30000;SDS011;16845;48.670;9.000;2023-04-24T13:21:14;5.50;;;1.83;;
30000;SDS011;16845;48.670;9.000;2023-04-24T13:23:42;4.63;;;2.53;;
30000;SDS011;16845;48.670;9.000;2023-04-24T13:26:09;1.40;;;1.30;;
30000;SDS011;16845;48.670;9.000;2023-04-24T13:28:35;3.23;;;2.30;;
30000;SDS011;16845;48.670;9.000;2023-04-24T13:31:02;3.60;;;2.03;;
30000;SDS011;16845;48.670;9.000;2023-04-24T13:33:29;2.95;;;2.25;;
30000;SDS011;16845;48.670;9.000;2023-04-24T13:35:56;2.67;;;1.70;;
30000;SDS011;16845;48.670;9.000;2023-04-24T13:38:23;3.67;;;2.20;;
30000;SDS011;16845;48.670;9.000;2023-04-24T13:40:51;3.17;;;2.23;;
30000;SDS011;16845;48.670;9.000;2023-04-24T13:43:17;2.88;;;2.10;;
30000;SDS011;16845;48.670;9.000;2023-04-24T13:45:44;4.33;;;1.80;;
30000;SDS011;16845;48.670;9.000;2023-04-24T13:48:11;5.90;;;1.97;;
30000;SDS011;16845;48.670;9.000;2023-04-24T13:50:38;1.90;;;1.55;;
30000;SDS011;16845;48.670;9.000;2023-04-24T13:53:05;4.20;;;1.80;;
30000;SDS011;16845;48.670;9.000;2023-04-24T13:55:31;2.60;;;1.90;;
30000;SDS011;16845;48.670;9.000;2023-04-24T13:57:59;3.63;;;1.58;;
30000;SDS011;16845;48.670;9.000;2023-04-24T14:00:26;2.95;;;2.10;;
30000;SDS011;16845;48.670;9.000;2023-04-24T14:02:53;4.10;;;1.85;;
30000;SDS011;16845;48.670;9.000;2023-04-24T14:05:20;2.92;;;1.55;;
30000;SDS011;16845;48.670;9.000;2023-04-24T14:07:47;3.70;;;1.83;;
30000;SDS011;16845;48.670;9.000;2023-04-24T14:10:14;3.07;;;1.70;;
30000;SDS011;16845;48.670;9.000;2023-04-24T14:12:41;3.88;;;1.85;;
30000;SDS011;16845;48.670;9.000;2023-04-24T14:15:09;4.50;;;2.23;;
30000;SDS011;16845;48.670;9.000;2023-04-24T14:17:36;4.70;;;3.08;;
30000;SDS011;16845;48.670;9.000;2023-04-24T14:20:04;2.92;;;2.50;;
30000;SDS011;16845;48.670;9.000;2023-04-24T14:22:31;3.90;;;2.50;;
30000;SDS011;16845;48.670;9.000;2023-04-24T14:24:58;5.28;;;2.58;;
30000;SDS011;16845;48.670;9.000;2023-04-24T14:27:25;4.15;;;2.55;;
30000;SDS011;16845;48.670;9.000;2023-04-24T14:29:52;2.85;;;2.35;;
30000;SDS011;16845;48.670;9.000;2023-04-24T14:32:20;5.15;;;2.45;;
30000;SDS011;16845;48.670;9.000;2023-04-24T14:34:47;3.40;;;2.78;;
30000;SDS011;16845;48.670;9.000;2023-04-24T14:37:14;2.33;;;1.88;;
30000;SDS011;16845;48.670;9.000;2023-04-24T14:39:41;2.03;;;1.70;;
30000;SDS011;16845;48.670;9.000;2023-04-24T14:42:11;3.35;;;1.80;;
30000;SDS011;16845;48.670;9.000;2023-04-24T14:44:38;2.00;;;1.50;;
30000;SDS011;16845;48.670;9.000;2023-04-24T14:47:04;5.40;;;2.20;;
30000;SDS011;16845;48.670;9.000;2023-04-24T14:49:33;2.70;;;1.42;;
30000;SDS011;16845;48.670;9.000;2023-04-24T14:51:59;1.75;;;1.33;;
30000;SDS011;16845;48.670;9.000;2023-04-24T14:54:26;1.30;;;1.20;;
30000;SDS011;16845;48.670;9.000;2023-04-24T14:56:53;3.55;;;1.63;;
30000;SDS011;16845;48.670;9.000;2023-04-24T14:59:20;1.88;;;1.45;;
30000;SDS011;16845;48.670;9.000;2023-04-24T15:01:47;4.23;;;1.70;;